Siesta Key, Florida
Current Conditions -  °F | °C
As of 8:53 AM on Thursday 27 Nov 2014 (Local Time) from KSRQ Reporting Station
Clear Clear  
Wind Chill: 59°   Ceiling: Unl
Heat Index: 59°   Visibility: 10mi
Dew Point: 52°   Wind: 5mph
Humidity: 78%   Direction: 150°SSE
Pressure: 30.29"   Gusts: NA
Location:  27.2613°N, 82.5431°W
Report Text: KSRQ 271353Z 15004KT 10SM CLR 15/11 A3029 RMK AO2 SLP255 T01500111
Loading
Personal Weather Stations






























Interactive Weather Map New forecast layout! Learn more

10-Day Weather Forecast

Advertisements
Track Severe Weather on mobile